sensor_id;sensor_type;location;lat;lon;timestamp;temperature;humidity
28460;DHT22;32528;45.712;9.192;2023-02-04T00:01:46;5.70;94.10
28460;DHT22;32528;45.712;9.192;2023-02-04T00:03:47;5.70;94.10
28460;DHT22;32528;45.712;9.192;2023-02-04T00:05:48;5.70;94.00
28460;DHT22;32528;45.712;9.192;2023-02-04T00:07:49;5.70;94.00
28460;DHT22;32528;45.712;9.192;2023-02-04T00:09:50;5.70;93.90
28460;DHT22;32528;45.712;9.192;2023-02-04T00:11:51;5.70;93.80
28460;DHT22;32528;45.712;9.192;2023-02-04T00:13:53;5.60;93.70
28460;DHT22;32528;45.712;9.192;2023-02-04T00:15:54;5.70;93.80
28460;DHT22;32528;45.712;9.192;2023-02-04T00:17:55;5.60;93.70
28460;DHT22;32528;45.712;9.192;2023-02-04T00:19:56;5.70;93.50
28460;DHT22;32528;45.712;9.192;2023-02-04T00:21:57;5.70;93.50
28460;DHT22;32528;45.712;9.192;2023-02-04T00:23:59;5.60;93.40
28460;DHT22;32528;45.712;9.192;2023-02-04T00:26:00;5.60;93.80
28460;DHT22;32528;45.712;9.192;2023-02-04T00:28:00;5.50;93.60
28460;DHT22;32528;45.712;9.192;2023-02-04T00:30:05;5.40;93.60
28460;DHT22;32528;45.712;9.192;2023-02-04T00:32:06;5.50;93.50
28460;DHT22;32528;45.712;9.192;2023-02-04T00:34:07;5.50;93.50
28460;DHT22;32528;45.712;9.192;2023-02-04T00:36:10;5.60;93.40
28460;DHT22;32528;45.712;9.192;2023-02-04T00:38:11;5.50;93.30
28460;DHT22;32528;45.712;9.192;2023-02-04T00:40:12;5.50;93.20
28460;DHT22;32528;45.712;9.192;2023-02-04T00:42:13;5.50;93.20
28460;DHT22;32528;45.712;9.192;2023-02-04T00:44:14;5.50;93.20
28460;DHT22;32528;45.712;9.192;2023-02-04T00:46:15;5.50;93.30
28460;DHT22;32528;45.712;9.192;2023-02-04T00:48:15;5.50;93.30
28460;DHT22;32528;45.712;9.192;2023-02-04T00:50:16;5.50;93.30
28460;DHT22;32528;45.712;9.192;2023-02-04T00:52:17;5.40;93.50
28460;DHT22;32528;45.712;9.192;2023-02-04T00:54:18;5.40;93.50
28460;DHT22;32528;45.712;9.192;2023-02-04T00:56:20;5.40;93.50
28460;DHT22;32528;45.712;9.192;2023-02-04T00:58:20;5.50;93.50
28460;DHT22;32528;45.712;9.192;2023-02-04T01:00:21;5.50;93.50
28460;DHT22;32528;45.712;9.192;2023-02-04T01:02:22;5.50;93.30
28460;DHT22;32528;45.712;9.192;2023-02-04T01:04:23;5.50;93.20
28460;DHT22;32528;45.712;9.192;2023-02-04T01:06:25;5.50;93.00
28460;DHT22;32528;45.712;9.192;2023-02-04T01:08:25;5.50;93.00
28460;DHT22;32528;45.712;9.192;2023-02-04T01:10:28;5.50;93.00
28460;DHT22;32528;45.712;9.192;2023-02-04T01:12:29;5.50;93.00
28460;DHT22;32528;45.712;9.192;2023-02-04T01:14:30;5.50;92.90
28460;DHT22;32528;45.712;9.192;2023-02-04T01:16:31;5.40;93.10
28460;DHT22;32528;45.712;9.192;2023-02-04T01:18:32;5.40;93.00
28460;DHT22;32528;45.712;9.192;2023-02-04T01:20:33;5.40;92.80
28460;DHT22;32528;45.712;9.192;2023-02-04T01:22:34;5.40;93.00
28460;DHT22;32528;45.712;9.192;2023-02-04T01:24:35;5.50;92.90
28460;DHT22;32528;45.712;9.192;2023-02-04T01:26:54;5.40;92.90
28460;DHT22;32528;45.712;9.192;2023-02-04T01:28:55;5.40;92.80
28460;DHT22;32528;45.712;9.192;2023-02-04T01:30:58;5.40;92.70
28460;DHT22;32528;45.712;9.192;2023-02-04T01:32:59;5.50;92.50
28460;DHT22;32528;45.712;9.192;2023-02-04T01:35:00;5.50;92.50
28460;DHT22;32528;45.712;9.192;2023-02-04T01:37:00;5.50;92.50
28460;DHT22;32528;45.712;9.192;2023-02-04T01:39:01;6.00;91.00
28460;DHT22;32528;45.712;9.192;2023-02-04T01:41:03;6.60;89.50
28460;DHT22;32528;45.712;9.192;2023-02-04T01:43:04;7.10;87.50
28460;DHT22;32528;45.712;9.192;2023-02-04T01:45:06;7.40;86.00
28460;DHT22;32528;45.712;9.192;2023-02-04T01:47:08;7.60;85.50
28460;DHT22;32528;45.712;9.192;2023-02-04T01:49:10;7.50;86.40
28460;DHT22;32528;45.712;9.192;2023-02-04T01:51:15;7.30;87.80
28460;DHT22;32528;45.712;9.192;2023-02-04T01:53:23;7.20;88.40
28460;DHT22;32528;45.712;9.192;2023-02-04T01:55:27;7.00;88.30
28460;DHT22;32528;45.712;9.192;2023-02-04T01:57:28;6.80;89.00
28460;DHT22;32528;45.712;9.192;2023-02-04T01:59:29;6.70;90.00
28460;DHT22;32528;45.712;9.192;2023-02-04T02:01:40;6.50;90.10
28460;DHT22;32528;45.712;9.192;2023-02-04T02:03:41;6.40;90.50
28460;DHT22;32528;45.712;9.192;2023-02-04T02:05:50;6.40;90.60
28460;DHT22;32528;45.712;9.192;2023-02-04T02:07:53;6.30;90.40
28460;DHT22;32528;45.712;9.192;2023-02-04T02:09:55;6.30;90.60
28460;DHT22;32528;45.712;9.192;2023-02-04T02:11:56;6.20;90.80
28460;DHT22;32528;45.712;9.192;2023-02-04T02:14:00;6.20;90.90
28460;DHT22;32528;45.712;9.192;2023-02-04T02:16:03;6.10;91.10
28460;DHT22;32528;45.712;9.192;2023-02-04T02:18:04;6.00;91.10
28460;DHT22;32528;45.712;9.192;2023-02-04T02:20:09;5.90;91.10
28460;DHT22;32528;45.712;9.192;2023-02-04T02:22:28;5.90;91.20
28460;DHT22;32528;45.712;9.192;2023-02-04T02:24:33;5.90;91.60
28460;DHT22;32528;45.712;9.192;2023-02-04T02:26:34;5.80;91.60
28460;DHT22;32528;45.712;9.192;2023-02-04T02:28:36;5.80;91.50
28460;DHT22;32528;45.712;9.192;2023-02-04T02:30:37;5.80;91.60
28460;DHT22;32528;45.712;9.192;2023-02-04T02:32:38;5.70;91.80
28460;DHT22;32528;45.712;9.192;2023-02-04T02:34:39;5.70;91.60
28460;DHT22;32528;45.712;9.192;2023-02-04T02:36:40;5.70;91.80
28460;DHT22;32528;45.712;9.192;2023-02-04T02:38:41;5.60;91.90
28460;DHT22;32528;45.712;9.192;2023-02-04T02:40:42;5.50;91.90
28460;DHT22;32528;45.712;9.192;2023-02-04T02:42:48;5.50;92.00
28460;DHT22;32528;45.712;9.192;2023-02-04T02:44:50;5.50;92.00
28460;DHT22;32528;45.712;9.192;2023-02-04T02:46:52;5.40;91.90
28460;DHT22;32528;45.712;9.192;2023-02-04T02:48:53;5.40;91.80
28460;DHT22;32528;45.712;9.192;2023-02-04T02:50:54;5.50;91.80
28460;DHT22;32528;45.712;9.192;2023-02-04T02:52:56;5.50;91.90
28460;DHT22;32528;45.712;9.192;2023-02-04T02:54:57;5.50;92.30
28460;DHT22;32528;45.712;9.192;2023-02-04T02:56:58;5.40;91.90
28460;DHT22;32528;45.712;9.192;2023-02-04T02:59:12;5.50;91.90
28460;DHT22;32528;45.712;9.192;2023-02-04T03:01:14;5.50;91.80
28460;DHT22;32528;45.712;9.192;2023-02-04T03:03:27;5.50;91.70
28460;DHT22;32528;45.712;9.192;2023-02-04T03:05:31;5.60;91.80
28460;DHT22;32528;45.712;9.192;2023-02-04T03:07:32;5.50;91.80
28460;DHT22;32528;45.712;9.192;2023-02-04T03:09:33;5.50;91.80
28460;DHT22;32528;45.712;9.192;2023-02-04T03:11:34;5.50;91.90
28460;DHT22;32528;45.712;9.192;2023-02-04T03:13:36;5.50;91.80
28460;DHT22;32528;45.712;9.192;2023-02-04T03:15:37;5.50;91.70
28460;DHT22;32528;45.712;9.192;2023-02-04T03:17:39;5.60;91.70
28460;DHT22;32528;45.712;9.192;2023-02-04T03:19:40;5.50;91.90
28460;DHT22;32528;45.712;9.192;2023-02-04T03:21:41;5.50;91.90
28460;DHT22;32528;45.712;9.192;2023-02-04T03:23:42;5.50;92.00
28460;DHT22;32528;45.712;9.192;2023-02-04T03:25:43;5.50;92.10
28460;DHT22;32528;45.712;9.192;2023-02-04T03:27:44;5.50;92.00
28460;DHT22;32528;45.712;9.192;2023-02-04T03:29:45;5.50;91.90
28460;DHT22;32528;45.712;9.192;2023-02-04T03:31:45;5.50;92.00
28460;DHT22;32528;45.712;9.192;2023-02-04T03:33:46;5.60;92.00
28460;DHT22;32528;45.712;9.192;2023-02-04T03:35:47;5.50;92.00
28460;DHT22;32528;45.712;9.192;2023-02-04T03:37:48;5.50;92.00
28460;DHT22;32528;45.712;9.192;2023-02-04T03:39:49;5.50;91.90
28460;DHT22;32528;45.712;9.192;2023-02-04T03:41:50;5.50;92.00
28460;DHT22;32528;45.712;9.192;2023-02-04T03:43:50;5.50;92.30
28460;DHT22;32528;45.712;9.192;2023-02-04T03:45:51;5.50;92.30
28460;DHT22;32528;45.712;9.192;2023-02-04T03:47:52;5.50;92.30
28460;DHT22;32528;45.712;9.192;2023-02-04T03:49:52;5.50;92.10
28460;DHT22;32528;45.712;9.192;2023-02-04T03:51:53;5.60;92.10
28460;DHT22;32528;45.712;9.192;2023-02-04T03:53:54;5.60;92.00
28460;DHT22;32528;45.712;9.192;2023-02-04T03:55:54;5.70;92.00
28460;DHT22;32528;45.712;9.192;2023-02-04T03:57:55;5.70;91.90
28460;DHT22;32528;45.712;9.192;2023-02-04T03:59:56;5.70;92.00
28460;DHT22;32528;45.712;9.192;2023-02-04T04:01:57;5.60;92.00
28460;DHT22;32528;45.712;9.192;2023-02-04T04:03:57;5.70;92.10
28460;DHT22;32528;45.712;9.192;2023-02-04T04:05:58;5.60;92.10
28460;DHT22;32528;45.712;9.192;2023-02-04T04:07:59;5.60;92.20
28460;DHT22;32528;45.712;9.192;2023-02-04T04:09:59;5.60;92.20
28460;DHT22;32528;45.712;9.192;2023-02-04T04:12:00;5.50;92.20
28460;DHT22;32528;45.712;9.192;2023-02-04T04:14:03;5.60;92.30
28460;DHT22;32528;45.712;9.192;2023-02-04T04:16:04;5.60;92.30
28460;DHT22;32528;45.712;9.192;2023-02-04T04:18:05;5.60;92.70
28460;DHT22;32528;45.712;9.192;2023-02-04T04:20:08;5.50;92.40
28460;DHT22;32528;45.712;9.192;2023-02-04T04:22:09;5.60;92.50
28460;DHT22;32528;45.712;9.192;2023-02-04T04:24:10;5.60;92.50
28460;DHT22;32528;45.712;9.192;2023-02-04T04:26:10;5.70;92.40
28460;DHT22;32528;45.712;9.192;2023-02-04T04:28:11;5.60;92.50
28460;DHT22;32528;45.712;9.192;2023-02-04T04:30:12;5.60;92.40
28460;DHT22;32528;45.712;9.192;2023-02-04T04:32:12;5.60;92.50
28460;DHT22;32528;45.712;9.192;2023-02-04T04:34:13;5.60;92.50
28460;DHT22;32528;45.712;9.192;2023-02-04T04:36:16;5.60;92.70
28460;DHT22;32528;45.712;9.192;2023-02-04T04:38:17;5.60;92.60
28460;DHT22;32528;45.712;9.192;2023-02-04T04:40:18;5.60;92.50
28460;DHT22;32528;45.712;9.192;2023-02-04T04:42:18;5.70;92.50
28460;DHT22;32528;45.712;9.192;2023-02-04T04:44:19;5.60;92.60
28460;DHT22;32528;45.712;9.192;2023-02-04T04:46:20;5.60;92.70
28460;DHT22;32528;45.712;9.192;2023-02-04T04:48:21;5.60;92.60
28460;DHT22;32528;45.712;9.192;2023-02-04T04:50:22;5.60;92.50
28460;DHT22;32528;45.712;9.192;2023-02-04T04:52:23;5.60;92.60
28460;DHT22;32528;45.712;9.192;2023-02-04T04:54:24;5.60;92.60
28460;DHT22;32528;45.712;9.192;2023-02-04T04:56:25;5.60;92.70
28460;DHT22;32528;45.712;9.192;2023-02-04T04:58:25;5.60;92.70
28460;DHT22;32528;45.712;9.192;2023-02-04T05:00:26;5.60;92.60
28460;DHT22;32528;45.712;9.192;2023-02-04T05:02:27;5.60;92.60
28460;DHT22;32528;45.712;9.192;2023-02-04T05:04:27;5.70;92.70
28460;DHT22;32528;45.712;9.192;2023-02-04T05:06:28;5.60;92.80
28460;DHT22;32528;45.712;9.192;2023-02-04T05:08:29;5.60;92.70
28460;DHT22;32528;45.712;9.192;2023-02-04T05:10:30;5.70;92.70
28460;DHT22;32528;45.712;9.192;2023-02-04T05:12:30;5.70;92.80
28460;DHT22;32528;45.712;9.192;2023-02-04T05:14:31;5.60;92.70
28460;DHT22;32528;45.712;9.192;2023-02-04T05:16:32;5.70;92.80
28460;DHT22;32528;45.712;9.192;2023-02-04T05:18:33;5.60;92.90
28460;DHT22;32528;45.712;9.192;2023-02-04T05:20:33;5.60;93.00
28460;DHT22;32528;45.712;9.192;2023-02-04T05:22:34;5.60;92.90
28460;DHT22;32528;45.712;9.192;2023-02-04T05:24:35;5.60;93.00
28460;DHT22;32528;45.712;9.192;2023-02-04T05:26:35;5.50;93.00
28460;DHT22;32528;45.712;9.192;2023-02-04T05:28:36;5.50;93.00
28460;DHT22;32528;45.712;9.192;2023-02-04T05:30:37;5.60;93.00
28460;DHT22;32528;45.712;9.192;2023-02-04T05:32:38;5.60;92.90
28460;DHT22;32528;45.712;9.192;2023-02-04T05:34:40;5.60;93.00
28460;DHT22;32528;45.712;9.192;2023-02-04T05:36:41;5.60;93.00
28460;DHT22;32528;45.712;9.192;2023-02-04T05:38:42;5.60;93.10
28460;DHT22;32528;45.712;9.192;2023-02-04T05:40:43;5.50;93.10
28460;DHT22;32528;45.712;9.192;2023-02-04T05:42:44;5.60;93.10
28460;DHT22;32528;45.712;9.192;2023-02-04T05:44:44;5.60;92.90
28460;DHT22;32528;45.712;9.192;2023-02-04T05:46:45;5.70;92.80
28460;DHT22;32528;45.712;9.192;2023-02-04T05:48:46;5.70;92.90
28460;DHT22;32528;45.712;9.192;2023-02-04T05:50:46;5.80;92.70
28460;DHT22;32528;45.712;9.192;2023-02-04T05:52:47;5.80;92.60
28460;DHT22;32528;45.712;9.192;2023-02-04T05:54:48;5.90;92.60
28460;DHT22;32528;45.712;9.192;2023-02-04T05:56:48;5.80;92.60
28460;DHT22;32528;45.712;9.192;2023-02-04T05:58:51;5.90;92.60
28460;DHT22;32528;45.712;9.192;2023-02-04T06:00:52;5.90;92.60
28460;DHT22;32528;45.712;9.192;2023-02-04T06:02:53;5.90;92.60
28460;DHT22;32528;45.712;9.192;2023-02-04T06:04:53;5.90;92.60
28460;DHT22;32528;45.712;9.192;2023-02-04T06:06:55;5.90;92.50
28460;DHT22;32528;45.712;9.192;2023-02-04T06:08:56;5.90;92.50
28460;DHT22;32528;45.712;9.192;2023-02-04T06:10:57;5.80;92.60
28460;DHT22;32528;45.712;9.192;2023-02-04T06:12:58;5.90;92.50
28460;DHT22;32528;45.712;9.192;2023-02-04T06:14:59;5.90;92.60
28460;DHT22;32528;45.712;9.192;2023-02-04T06:17:00;5.90;92.50
28460;DHT22;32528;45.712;9.192;2023-02-04T06:19:01;5.90;92.40
28460;DHT22;32528;45.712;9.192;2023-02-04T06:21:02;5.90;92.40
28460;DHT22;32528;45.712;9.192;2023-02-04T06:23:04;5.90;92.40
28460;DHT22;32528;45.712;9.192;2023-02-04T06:25:05;5.90;92.40
28460;DHT22;32528;45.712;9.192;2023-02-04T06:27:05;5.90;92.40
28460;DHT22;32528;45.712;9.192;2023-02-04T06:29:06;5.90;92.50
28460;DHT22;32528;45.712;9.192;2023-02-04T06:31:07;5.90;92.40
28460;DHT22;32528;45.712;9.192;2023-02-04T06:33:08;5.90;92.40
28460;DHT22;32528;45.712;9.192;2023-02-04T06:35:09;5.90;92.40
28460;DHT22;32528;45.712;9.192;2023-02-04T06:37:12;5.90;92.40
28460;DHT22;32528;45.712;9.192;2023-02-04T06:39:13;5.90;92.40
28460;DHT22;32528;45.712;9.192;2023-02-04T06:41:14;5.90;92.40
28460;DHT22;32528;45.712;9.192;2023-02-04T06:43:15;5.90;92.40
28460;DHT22;32528;45.712;9.192;2023-02-04T06:45:16;5.90;92.50
28460;DHT22;32528;45.712;9.192;2023-02-04T06:47:18;5.90;92.60
28460;DHT22;32528;45.712;9.192;2023-02-04T06:49:18;5.90;92.60
28460;DHT22;32528;45.712;9.192;2023-02-04T06:51:19;5.90;92.60
28460;DHT22;32528;45.712;9.192;2023-02-04T06:53:20;5.90;92.60
28460;DHT22;32528;45.712;9.192;2023-02-04T06:55:21;6.00;92.60
28460;DHT22;32528;45.712;9.192;2023-02-04T06:57:22;6.10;92.30
28460;DHT22;32528;45.712;9.192;2023-02-04T06:59:22;6.20;92.30
28460;DHT22;32528;45.712;9.192;2023-02-04T07:01:25;6.40;92.00
28460;DHT22;32528;45.712;9.192;2023-02-04T07:03:26;6.60;91.60
28460;DHT22;32528;45.712;9.192;2023-02-04T07:05:27;6.80;91.50
28460;DHT22;32528;45.712;9.192;2023-02-04T07:07:27;6.90;91.20
28460;DHT22;32528;45.712;9.192;2023-02-04T07:09:28;7.00;91.50
28460;DHT22;32528;45.712;9.192;2023-02-04T07:11:29;7.20;90.60
28460;DHT22;32528;45.712;9.192;2023-02-04T07:13:30;7.50;90.20
28460;DHT22;32528;45.712;9.192;2023-02-04T07:15:31;7.60;90.30
28460;DHT22;32528;45.712;9.192;2023-02-04T07:17:32;7.60;90.10
28460;DHT22;32528;45.712;9.192;2023-02-04T07:19:32;7.70;90.10
28460;DHT22;32528;45.712;9.192;2023-02-04T07:21:34;7.70;90.00
28460;DHT22;32528;45.712;9.192;2023-02-04T07:23:35;7.80;90.00
28460;DHT22;32528;45.712;9.192;2023-02-04T07:25:36;7.80;89.60
28460;DHT22;32528;45.712;9.192;2023-02-04T07:27:38;7.80;90.00
28460;DHT22;32528;45.712;9.192;2023-02-04T07:29:39;7.90;90.00
28460;DHT22;32528;45.712;9.192;2023-02-04T07:31:40;7.90;90.20
28460;DHT22;32528;45.712;9.192;2023-02-04T07:33:41;7.90;90.20
28460;DHT22;32528;45.712;9.192;2023-02-04T07:35:42;8.00;90.10
28460;DHT22;32528;45.712;9.192;2023-02-04T07:37:43;7.90;90.20
28460;DHT22;32528;45.712;9.192;2023-02-04T07:39:44;7.90;90.30
28460;DHT22;32528;45.712;9.192;2023-02-04T07:41:45;8.00;90.20
28460;DHT22;32528;45.712;9.192;2023-02-04T07:43:48;8.00;90.50
28460;DHT22;32528;45.712;9.192;2023-02-04T07:45:49;7.90;90.70
28460;DHT22;32528;45.712;9.192;2023-02-04T07:47:50;8.00;90.50
28460;DHT22;32528;45.712;9.192;2023-02-04T07:49:51;8.20;90.20
28460;DHT22;32528;45.712;9.192;2023-02-04T07:51:54;8.70;88.10
28460;DHT22;32528;45.712;9.192;2023-02-04T07:53:55;9.30;86.80
28460;DHT22;32528;45.712;9.192;2023-02-04T07:55:56;9.50;85.30
28460;DHT22;32528;45.712;9.192;2023-02-04T07:57:57;9.70;85.20
28460;DHT22;32528;45.712;9.192;2023-02-04T07:59:58;10.00;83.60
28460;DHT22;32528;45.712;9.192;2023-02-04T08:01:59;10.00;85.30
28460;DHT22;32528;45.712;9.192;2023-02-04T08:04:01;10.00;86.10
28460;DHT22;32528;45.712;9.192;2023-02-04T08:06:02;9.90;86.70
28460;DHT22;32528;45.712;9.192;2023-02-04T08:08:02;9.90;87.30
28460;DHT22;32528;45.712;9.192;2023-02-04T08:10:04;9.90;87.40
28460;DHT22;32528;45.712;9.192;2023-02-04T08:12:05;9.90;87.10
28460;DHT22;32528;45.712;9.192;2023-02-04T08:14:06;9.90;87.90
28460;DHT22;32528;45.712;9.192;2023-02-04T08:16:07;9.90;87.90
28460;DHT22;32528;45.712;9.192;2023-02-04T08:18:07;10.00;87.70
28460;DHT22;32528;45.712;9.192;2023-02-04T08:20:09;10.00;87.70
28460;DHT22;32528;45.712;9.192;2023-02-04T08:22:10;10.10;87.50
28460;DHT22;32528;45.712;9.192;2023-02-04T08:24:13;10.30;86.80
28460;DHT22;32528;45.712;9.192;2023-02-04T08:26:14;10.30;87.70
28460;DHT22;32528;45.712;9.192;2023-02-04T08:28:15;10.40;87.00
28460;DHT22;32528;45.712;9.192;2023-02-04T08:30:16;10.70;85.40
28460;DHT22;32528;45.712;9.192;2023-02-04T08:32:17;10.90;85.40
28460;DHT22;32528;45.712;9.192;2023-02-04T08:34:17;10.90;86.30
28460;DHT22;32528;45.712;9.192;2023-02-04T08:36:18;11.10;85.20
28460;DHT22;32528;45.712;9.192;2023-02-04T08:38:19;11.20;86.30
28460;DHT22;32528;45.712;9.192;2023-02-04T08:40:20;11.20;85.70
28460;DHT22;32528;45.712;9.192;2023-02-04T08:42:21;11.40;84.30
28460;DHT22;32528;45.712;9.192;2023-02-04T08:44:22;11.60;83.90
28460;DHT22;32528;45.712;9.192;2023-02-04T08:46:23;11.80;83.80
28460;DHT22;32528;45.712;9.192;2023-02-04T08:48:23;11.90;83.30
28460;DHT22;32528;45.712;9.192;2023-02-04T08:50:24;12.20;81.90
28460;DHT22;32528;45.712;9.192;2023-02-04T08:52:26;12.30;81.10
28460;DHT22;32528;45.712;9.192;2023-02-04T08:54:26;12.60;79.80
28460;DHT22;32528;45.712;9.192;2023-02-04T08:56:27;12.70;79.60
28460;DHT22;32528;45.712;9.192;2023-02-04T08:58:28;13.00;77.40
28460;DHT22;32528;45.712;9.192;2023-02-04T09:00:29;13.40;75.60
28460;DHT22;32528;45.712;9.192;2023-02-04T09:02:29;13.80;71.20
28460;DHT22;32528;45.712;9.192;2023-02-04T09:04:30;14.10;72.50
28460;DHT22;32528;45.712;9.192;2023-02-04T09:06:31;14.20;73.40
28460;DHT22;32528;45.712;9.192;2023-02-04T09:08:32;14.40;72.80
28460;DHT22;32528;45.712;9.192;2023-02-04T09:10:34;14.60;70.10
28460;DHT22;32528;45.712;9.192;2023-02-04T09:12:34;14.70;68.30
28460;DHT22;32528;45.712;9.192;2023-02-04T09:14:35;15.00;68.20
28460;DHT22;32528;45.712;9.192;2023-02-04T09:16:36;15.20;66.60
28460;DHT22;32528;45.712;9.192;2023-02-04T09:18:36;15.60;64.50
28460;DHT22;32528;45.712;9.192;2023-02-04T09:20:37;15.70;64.20
28460;DHT22;32528;45.712;9.192;2023-02-04T09:22:38;15.90;63.50
28460;DHT22;32528;45.712;9.192;2023-02-04T09:24:39;16.10;60.50
28460;DHT22;32528;45.712;9.192;2023-02-04T09:26:40;16.40;61.10
28460;DHT22;32528;45.712;9.192;2023-02-04T09:28:41;16.40;61.50
28460;DHT22;32528;45.712;9.192;2023-02-04T09:30:43;16.50;59.80
28460;DHT22;32528;45.712;9.192;2023-02-04T09:32:44;16.70;57.90
28460;DHT22;32528;45.712;9.192;2023-02-04T09:34:45;16.90;58.60
28460;DHT22;32528;45.712;9.192;2023-02-04T09:36:46;17.00;58.10
28460;DHT22;32528;45.712;9.192;2023-02-04T09:38:46;17.10;57.90
28460;DHT22;32528;45.712;9.192;2023-02-04T09:40:52;17.20;57.50
28460;DHT22;32528;45.712;9.192;2023-02-04T09:42:55;17.30;57.40
28460;DHT22;32528;45.712;9.192;2023-02-04T09:44:56;17.30;58.10
28460;DHT22;32528;45.712;9.192;2023-02-04T09:46:58;17.40;57.10
28460;DHT22;32528;45.712;9.192;2023-02-04T09:49:00;17.50;56.20
28460;DHT22;32528;45.712;9.192;2023-02-04T09:51:05;17.60;55.90
28460;DHT22;32528;45.712;9.192;2023-02-04T09:53:08;17.70;54.90
28460;DHT22;32528;45.712;9.192;2023-02-04T09:55:15;17.70;55.40
28460;DHT22;32528;45.712;9.192;2023-02-04T09:57:17;17.70;55.30
28460;DHT22;32528;45.712;9.192;2023-02-04T09:59:20;17.80;54.20
28460;DHT22;32528;45.712;9.192;2023-02-04T10:01:21;17.90;54.50
28460;DHT22;32528;45.712;9.192;2023-02-04T10:03:23;17.90;55.30
28460;DHT22;32528;45.712;9.192;2023-02-04T10:05:27;17.90;55.40
28460;DHT22;32528;45.712;9.192;2023-02-04T10:07:28;17.90;54.00
28460;DHT22;32528;45.712;9.192;2023-02-04T10:09:31;18.10;54.10
28460;DHT22;32528;45.712;9.192;2023-02-04T10:11:35;18.10;53.80
28460;DHT22;32528;45.712;9.192;2023-02-04T10:13:41;18.10;54.50
28460;DHT22;32528;45.712;9.192;2023-02-04T10:15:45;18.10;54.30
28460;DHT22;32528;45.712;9.192;2023-02-04T10:17:52;18.20;52.80
28460;DHT22;32528;45.712;9.192;2023-02-04T10:19:54;18.30;53.20
28460;DHT22;32528;45.712;9.192;2023-02-04T10:21:56;18.40;53.00
28460;DHT22;32528;45.712;9.192;2023-02-04T10:23:59;18.40;52.60
28460;DHT22;32528;45.712;9.192;2023-02-04T10:26:02;18.50;51.70
28460;DHT22;32528;45.712;9.192;2023-02-04T10:28:03;18.50;52.70
28460;DHT22;32528;45.712;9.192;2023-02-04T10:30:04;18.50;52.10
28460;DHT22;32528;45.712;9.192;2023-02-04T10:32:05;18.50;51.20
28460;DHT22;32528;45.712;9.192;2023-02-04T10:34:13;18.60;52.70
28460;DHT22;32528;45.712;9.192;2023-02-04T10:36:14;18.60;50.60
28460;DHT22;32528;45.712;9.192;2023-02-04T10:38:15;18.60;50.90
28460;DHT22;32528;45.712;9.192;2023-02-04T10:40:24;18.60;50.90
28460;DHT22;32528;45.712;9.192;2023-02-04T10:42:27;18.60;50.70
28460;DHT22;32528;45.712;9.192;2023-02-04T10:44:33;18.60;51.10
28460;DHT22;32528;45.712;9.192;2023-02-04T10:46:40;18.60;51.10
28460;DHT22;32528;45.712;9.192;2023-02-04T10:48:41;18.60;51.20
28460;DHT22;32528;45.712;9.192;2023-02-04T10:50:43;18.70;51.20
28460;DHT22;32528;45.712;9.192;2023-02-04T10:52:56;18.70;51.70
28460;DHT22;32528;45.712;9.192;2023-02-04T10:55:20;18.70;51.10
28460;DHT22;32528;45.712;9.192;2023-02-04T10:57:25;18.70;50.50
28460;DHT22;32528;45.712;9.192;2023-02-04T10:59:27;18.70;50.10
28460;DHT22;32528;45.712;9.192;2023-02-04T11:01:28;18.80;50.90
28460;DHT22;32528;45.712;9.192;2023-02-04T11:03:30;18.80;50.10
28460;DHT22;32528;45.712;9.192;2023-02-04T11:05:33;18.80;50.10
28460;DHT22;32528;45.712;9.192;2023-02-04T11:07:34;18.80;50.10
28460;DHT22;32528;45.712;9.192;2023-02-04T11:09:34;18.80;49.90
28460;DHT22;32528;45.712;9.192;2023-02-04T11:11:36;18.80;49.70
28460;DHT22;32528;45.712;9.192;2023-02-04T11:15:48;18.80;49.90
28460;DHT22;32528;45.712;9.192;2023-02-04T11:18:03;18.90;50.60
28460;DHT22;32528;45.712;9.192;2023-02-04T11:20:30;18.90;49.80
28460;DHT22;32528;45.712;9.192;2023-02-04T11:22:45;18.90;49.80
28460;DHT22;32528;45.712;9.192;2023-02-04T11:24:53;18.90;49.00
28460;DHT22;32528;45.712;9.192;2023-02-04T11:27:22;18.80;48.90
28460;DHT22;32528;45.712;9.192;2023-02-04T11:29:29;18.90;49.80
28460;DHT22;32528;45.712;9.192;2023-02-04T11:33:48;18.80;49.20
28460;DHT22;32528;45.712;9.192;2023-02-04T11:36:10;18.90;48.80
28460;DHT22;32528;45.712;9.192;2023-02-04T11:38:26;18.90;50.20
28460;DHT22;32528;45.712;9.192;2023-02-04T11:40:37;18.90;49.50
28460;DHT22;32528;45.712;9.192;2023-02-04T11:42:40;18.90;48.80
28460;DHT22;32528;45.712;9.192;2023-02-04T11:44:42;18.90;49.00
28460;DHT22;32528;45.712;9.192;2023-02-04T11:46:51;18.80;48.80
28460;DHT22;32528;45.712;9.192;2023-02-04T11:48:56;18.80;48.70
28460;DHT22;32528;45.712;9.192;2023-02-04T11:50:59;18.80;48.80
28460;DHT22;32528;45.712;9.192;2023-02-04T11:53:01;18.80;48.50
28460;DHT22;32528;45.712;9.192;2023-02-04T11:55:03;18.80;49.00
28460;DHT22;32528;45.712;9.192;2023-02-04T11:57:04;18.90;49.00
28460;DHT22;32528;45.712;9.192;2023-02-04T11:59:05;18.90;49.50
28460;DHT22;32528;45.712;9.192;2023-02-04T12:01:22;19.00;48.70
28460;DHT22;32528;45.712;9.192;2023-02-04T12:03:30;19.00;48.70
28460;DHT22;32528;45.712;9.192;2023-02-04T12:05:39;19.00;49.00
28460;DHT22;32528;45.712;9.192;2023-02-04T12:07:41;18.90;48.30
28460;DHT22;32528;45.712;9.192;2023-02-04T12:09:46;18.90;48.00
28460;DHT22;32528;45.712;9.192;2023-02-04T12:12:03;18.90;47.70
28460;DHT22;32528;45.712;9.192;2023-02-04T12:14:08;18.90;47.60
28460;DHT22;32528;45.712;9.192;2023-02-04T12:16:09;19.00;47.70
28460;DHT22;32528;45.712;9.192;2023-02-04T12:18:10;18.90;47.90
28460;DHT22;32528;45.712;9.192;2023-02-04T12:20:16;18.90;48.20
28460;DHT22;32528;45.712;9.192;2023-02-04T12:22:17;18.90;47.60
28460;DHT22;32528;45.712;9.192;2023-02-04T12:24:17;18.90;47.70
28460;DHT22;32528;45.712;9.192;2023-02-04T12:26:18;18.90;47.30
28460;DHT22;32528;45.712;9.192;2023-02-04T12:28:19;18.90;47.90
28460;DHT22;32528;45.712;9.192;2023-02-04T12:30:21;18.90;47.60
28460;DHT22;32528;45.712;9.192;2023-02-04T12:32:22;18.80;47.00
28460;DHT22;32528;45.712;9.192;2023-02-04T12:34:23;18.70;47.00
28460;DHT22;32528;45.712;9.192;2023-02-04T12:36:25;18.80;47.50
28460;DHT22;32528;45.712;9.192;2023-02-04T12:38:27;18.80;47.40
28460;DHT22;32528;45.712;9.192;2023-02-04T12:40:29;18.80;47.70
28460;DHT22;32528;45.712;9.192;2023-02-04T12:42:29;18.80;47.40
28460;DHT22;32528;45.712;9.192;2023-02-04T12:44:30;18.80;47.50
28460;DHT22;32528;45.712;9.192;2023-02-04T12:46:32;18.90;47.50
28460;DHT22;32528;45.712;9.192;2023-02-04T12:48:32;18.90;47.30
28460;DHT22;32528;45.712;9.192;2023-02-04T12:50:33;18.90;47.50
28460;DHT22;32528;45.712;9.192;2023-02-04T12:52:34;18.80;47.10
28460;DHT22;32528;45.712;9.192;2023-02-04T12:54:36;18.80;47.20
28460;DHT22;32528;45.712;9.192;2023-02-04T12:56:37;18.80;47.40
28460;DHT22;32528;45.712;9.192;2023-02-04T12:58:38;18.70;47.30
28460;DHT22;32528;45.712;9.192;2023-02-04T13:00:39;18.70;46.60
28460;DHT22;32528;45.712;9.192;2023-02-04T13:02:40;18.70;47.00
28460;DHT22;32528;45.712;9.192;2023-02-04T13:04:41;18.70;46.80